Bennet, Nebraska
Current Conditions -  °F | °C
As of 6:54 AM on Friday 24 Oct 2014 (Local Time) from KLNK Reporting Station
Haze Haze  
Wind Chill: 60°   Ceiling: Unl
Heat Index: 60°   Visibility: 5mi
Dew Point: 57°   Wind: 12mph
Humidity: 90%   Direction: 210°SSW
Pressure: 29.95"   Gusts: NA
Location:  40.68°N, 96.51°W
Report Text: KLNK 241154Z 21010KT 5SM BR CLR 16/14 A2995 RMK AO2 SLP139 T01560139 10167 20111 58008
Loading
Personal Weather Stations






























Interactive Weather Map
Tropical Storm Tracking
New forecast layout! Learn more

10-Day Weather Forecast

Advertisements
Track Severe Weather on mobile